Manley, Nebraska
Current Conditions -  °F | °C
As of 6:15 AM on Sunday 25 Jan 2015 (Local Time) from KPMV Reporting Station
Overcast Overcast  
Wind Chill: 23°   Ceiling: 1300
Heat Index: 35°   Visibility: 10mi
Dew Point: 32°   Wind: 21mph
Humidity: 89%   Direction: 330°NNW
Pressure: 29.74"   Gusts: 32mph
Location:  40.92°N, 96.17°W
Report Text: KPMV 251215Z AUTO 33018G28KT 10SM OVC013 02/00 A2974 RMK AO2 T00151002
Loading
Personal Weather Stations






























Interactive Weather Map New forecast layout! Learn more

10-Day Weather Forecast

Advertisements
Track Severe Weather on mobile